createdAt,value
2022-10-20T00:02:25.934Z,5.90
2022-10-20T00:04:53.460Z,6.13
2022-10-20T00:07:20.606Z,7.37
2022-10-20T00:09:47.739Z,5.80
2022-10-20T00:12:14.944Z,5.97
2022-10-20T00:14:42.164Z,6.47
2022-10-20T00:17:12.789Z,6.50
2022-10-20T00:19:40.139Z,6.23
2022-10-20T00:22:07.431Z,7.00
2022-10-20T00:24:34.600Z,6.60
2022-10-20T00:27:01.767Z,6.77
2022-10-20T00:29:30.686Z,6.57
2022-10-20T00:31:57.893Z,6.80
2022-10-20T00:34:25.098Z,6.67
2022-10-20T00:36:52.305Z,6.70
2022-10-20T00:39:19.451Z,6.43
2022-10-20T00:41:46.736Z,7.10
2022-10-20T00:44:32.712Z,7.23
2022-10-20T00:46:59.928Z,7.13
2022-10-20T00:49:27.357Z,7.53
2022-10-20T00:51:54.995Z,7.57
2022-10-20T00:54:24.511Z,7.33
2022-10-20T00:56:51.995Z,7.63
2022-10-20T00:59:20.433Z,7.17
2022-10-20T01:01:47.915Z,7.00
2022-10-20T01:04:15.942Z,7.07
2022-10-20T01:06:43.184Z,7.80
2022-10-20T01:09:10.657Z,7.07
2022-10-20T01:11:43.578Z,7.70
2022-10-20T01:14:16.876Z,7.53
2022-10-20T01:16:50.415Z,7.77
2022-10-20T01:19:33.850Z,8.40
2022-10-20T01:22:17.429Z,6.80
2022-10-20T01:24:55.129Z,7.03
2022-10-20T01:27:34.817Z,7.60
2022-10-20T01:30:02.210Z,8.37
2022-10-20T01:32:48.268Z,8.13
2022-10-20T01:35:18.236Z,7.50
2022-10-20T01:37:52.223Z,7.43
2022-10-20T01:40:28.641Z,7.43
2022-10-20T01:42:57.979Z,8.17
2022-10-20T01:45:26.040Z,8.00
2022-10-20T01:47:54.234Z,7.30
2022-10-20T01:50:21.890Z,8.50
2022-10-20T01:52:49.073Z,7.33
2022-10-20T01:55:17.719Z,8.07
2022-10-20T01:57:50.644Z,8.70
2022-10-20T02:00:18.513Z,8.50
2022-10-20T02:02:56.559Z,8.30
2022-10-20T02:05:23.808Z,7.87
2022-10-20T02:07:51.596Z,8.27
2022-10-20T02:10:28.474Z,8.40
2022-10-20T02:12:57.705Z,8.87
2022-10-20T02:15:26.073Z,7.57
2022-10-20T02:18:00.461Z,8.07
2022-10-20T02:20:29.506Z,8.03
2022-10-20T02:22:58.162Z,8.43
2022-10-20T02:25:26.074Z,9.37
2022-10-20T02:27:53.659Z,8.20
2022-10-20T02:30:24.665Z,8.03
2022-10-20T02:32:53.006Z,8.10
2022-10-20T02:35:26.864Z,7.73
2022-10-20T02:37:54.138Z,8.27
2022-10-20T02:40:22.832Z,8.10
2022-10-20T02:42:50.001Z,9.07
2022-10-20T02:45:17.306Z,9.00
2022-10-20T02:47:44.449Z,8.07
2022-10-20T02:50:11.659Z,8.27
2022-10-20T02:52:40.412Z,7.80
2022-10-20T02:55:07.749Z,8.97
2022-10-20T02:57:35.507Z,7.63
2022-10-20T03:00:02.949Z,8.13
2022-10-20T03:02:30.443Z,8.50
2022-10-20T03:04:57.563Z,8.47
2022-10-20T03:07:24.689Z,8.87
2022-10-20T03:09:51.882Z,8.53
2022-10-20T03:12:19.004Z,7.80
2022-10-20T03:14:46.167Z,8.33
2022-10-20T03:17:13.310Z,7.93
2022-10-20T03:19:43.239Z,9.20
2022-10-20T03:22:10.462Z,8.20
2022-10-20T03:24:37.655Z,11.00
2022-10-20T03:27:04.831Z,9.30
2022-10-20T03:29:32.015Z,8.07
2022-10-20T03:31:59.225Z,8.50
2022-10-20T03:34:26.572Z,8.83
2022-10-20T03:36:53.972Z,8.20
2022-10-20T03:39:21.249Z,9.60
2022-10-20T03:41:48.507Z,8.83
2022-10-20T03:44:15.717Z,9.50
2022-10-20T03:46:42.893Z,8.57
2022-10-20T03:49:10.073Z,9.53
2022-10-20T03:51:37.206Z,9.53
2022-10-20T03:54:04.590Z,8.70
2022-10-20T03:56:31.739Z,8.47
2022-10-20T03:58:59.012Z,8.47
2022-10-20T04:01:29.758Z,8.20
2022-10-20T04:03:56.964Z,8.83
2022-10-20T04:06:24.162Z,9.43
2022-10-20T04:08:51.398Z,8.07
2022-10-20T04:11:18.654Z,8.83
2022-10-20T04:13:45.863Z,8.67
2022-10-20T04:16:13.010Z,9.10
2022-10-20T04:18:40.264Z,8.50
2022-10-20T04:21:07.405Z,8.77
2022-10-20T04:23:34.624Z,8.97
2022-10-20T04:26:08.004Z,8.50
2022-10-20T04:28:35.176Z,8.23
2022-10-20T04:31:02.349Z,8.40
2022-10-20T04:33:29.540Z,8.37
2022-10-20T04:36:02.791Z,8.23
2022-10-20T04:38:30.492Z,8.27
2022-10-20T04:41:00.427Z,9.10
2022-10-20T04:43:33.790Z,8.30
2022-10-20T04:46:05.316Z,8.60
2022-10-20T04:48:35.419Z,8.37
2022-10-20T04:51:03.469Z,8.03
2022-10-20T04:53:30.757Z,9.87
2022-10-20T04:55:58.459Z,8.37
2022-10-20T04:58:25.916Z,8.33
2022-10-20T05:00:53.133Z,8.07
2022-10-20T05:03:20.871Z,9.07
2022-10-20T05:05:48.657Z,8.67
2022-10-20T05:08:16.050Z,8.67
2022-10-20T05:10:43.650Z,9.30
2022-10-20T05:13:11.182Z,9.07
2022-10-20T05:15:38.342Z,8.87
2022-10-20T05:18:05.734Z,8.23
2022-10-20T05:20:41.001Z,8.87
2022-10-20T05:23:13.418Z,8.30
2022-10-20T05:25:40.578Z,8.20
2022-10-20T05:28:07.744Z,8.60
2022-10-20T05:30:35.502Z,8.07
2022-10-20T05:33:02.872Z,9.57
2022-10-20T05:35:30.552Z,8.20
2022-10-20T05:37:57.866Z,9.00
2022-10-20T05:40:25.397Z,8.40
2022-10-20T05:42:52.787Z,8.67
2022-10-20T05:45:20.006Z,8.83
2022-10-20T05:47:47.228Z,8.23
2022-10-20T05:50:14.350Z,8.70
2022-10-20T05:52:42.723Z,8.83
2022-10-20T05:55:10.374Z,8.90
2022-10-20T05:57:37.596Z,8.67
2022-10-20T06:00:05.086Z,10.10
2022-10-20T06:02:34.152Z,8.80
2022-10-20T06:05:01.545Z,8.43
2022-10-20T06:07:28.640Z,8.90
2022-10-20T06:09:55.770Z,10.10
2022-10-20T06:12:22.976Z,9.07
2022-10-20T06:14:50.252Z,9.30
2022-10-20T06:17:17.363Z,8.63
2022-10-20T06:19:44.574Z,9.03
2022-10-20T06:22:14.267Z,9.53
2022-10-20T06:24:41.508Z,9.30
2022-10-20T06:27:08.810Z,9.20
2022-10-20T06:29:35.911Z,8.60
2022-10-20T06:32:03.786Z,9.70
2022-10-20T06:34:30.961Z,9.43
2022-10-20T06:36:59.007Z,9.33
2022-10-20T06:39:27.825Z,10.20
2022-10-20T06:41:55.174Z,9.70
2022-10-20T06:44:23.590Z,9.00
2022-10-20T06:46:54.646Z,9.90
2022-10-20T06:49:22.068Z,9.27
2022-10-20T06:51:49.769Z,10.90
2022-10-20T06:54:17.167Z,10.33
2022-10-20T06:56:44.390Z,10.67
2022-10-20T06:59:11.769Z,10.93
2022-10-20T07:01:39.979Z,9.43
2022-10-20T07:04:08.614Z,9.50
2022-10-20T07:06:37.441Z,9.70
2022-10-20T07:09:06.066Z,9.33
2022-10-20T07:11:33.437Z,8.37
2022-10-20T07:14:01.941Z,8.20
2022-10-20T07:16:31.489Z,8.90
2022-10-20T07:18:58.658Z,8.23
2022-10-20T07:21:32.278Z,7.70
2022-10-20T07:24:04.554Z,8.30
2022-10-20T07:26:34.408Z,8.43
2022-10-20T07:29:03.081Z,7.37
2022-10-20T07:31:31.546Z,7.47
2022-10-20T07:34:07.039Z,7.63
2022-10-20T07:36:43.076Z,8.13
2022-10-20T07:39:12.050Z,8.13
2022-10-20T07:41:39.719Z,8.07
2022-10-20T07:44:07.716Z,7.23
2022-10-20T07:46:34.912Z,7.63
2022-10-20T07:49:31.362Z,7.60
2022-10-20T07:51:51.478Z,8.00
2022-10-20T07:54:18.648Z,7.07
2022-10-20T07:56:46.363Z,7.73
2022-10-20T07:59:13.998Z,7.10
2022-10-20T08:01:41.054Z,8.33
2022-10-20T08:04:07.915Z,8.07
2022-10-20T08:06:34.746Z,7.53
2022-10-20T08:09:02.184Z,7.93
2022-10-20T08:11:29.224Z,7.53
2022-10-20T08:13:56.116Z,7.83
2022-10-20T08:16:31.956Z,7.80
2022-10-20T08:21:39.424Z,7.87
2022-10-20T08:24:06.375Z,8.87
2022-10-20T08:26:33.151Z,7.80
2022-10-20T08:29:00.060Z,9.00
2022-10-20T08:31:26.844Z,6.70
2022-10-20T08:33:53.645Z,7.03
2022-10-20T08:36:21.472Z,8.00
2022-10-20T08:38:48.916Z,6.97
2022-10-20T08:41:20.498Z,7.13
2022-10-20T08:43:49.325Z,7.00
2022-10-20T08:46:20.146Z,6.97
2022-10-20T08:48:48.328Z,7.33
2022-10-20T08:51:27.993Z,7.90
2022-10-20T08:53:58.146Z,7.80
2022-10-20T08:56:27.879Z,6.95
2022-10-20T08:58:54.828Z,7.80
2022-10-20T09:01:28.956Z,7.50
2022-10-20T09:04:34.534Z,6.90
2022-10-20T09:07:05.880Z,6.65
2022-10-20T09:09:33.782Z,6.57
2022-10-20T09:12:05.805Z,6.97
2022-10-20T09:14:35.200Z,6.78
2022-10-20T09:17:02.531Z,7.30
2022-10-20T09:19:30.481Z,8.27
2022-10-20T09:22:01.694Z,6.72
2022-10-20T09:24:30.790Z,6.95
2022-10-20T09:27:15.901Z,6.88
2022-10-20T09:29:42.689Z,7.25
2022-10-20T09:32:46.557Z,6.80
2022-10-20T09:35:32.882Z,7.15
2022-10-20T09:38:04.649Z,6.68
2022-10-20T09:40:31.969Z,6.97
2022-10-20T09:43:19.352Z,7.07
2022-10-20T09:46:10.986Z,7.15
2022-10-20T09:48:47.932Z,7.00
2022-10-20T09:51:23.710Z,7.80
2022-10-20T09:54:00.648Z,6.80
2022-10-20T09:56:35.323Z,7.25
2022-10-20T09:59:05.982Z,7.60
2022-10-20T10:01:32.858Z,7.03
2022-10-20T10:04:02.162Z,6.82
2022-10-20T10:06:49.514Z,11.02
2022-10-20T10:09:26.363Z,6.53
2022-10-20T10:12:03.750Z,7.30
2022-10-20T10:14:33.466Z,7.43
2022-10-20T10:17:01.140Z,7.50
2022-10-20T10:19:31.071Z,7.57
2022-10-20T10:22:02.977Z,8.05
2022-10-20T10:24:42.573Z,7.15
2022-10-20T10:27:19.885Z,7.05
2022-10-20T10:29:47.253Z,8.13
2022-10-20T10:32:22.876Z,8.10
2022-10-20T10:35:08.217Z,7.95
2022-10-20T10:37:37.126Z,7.85
2022-10-20T10:40:13.537Z,6.93
2022-10-20T10:43:09.313Z,7.45
2022-10-20T10:45:47.629Z,8.30
2022-10-20T10:48:56.566Z,7.68
2022-10-20T10:51:52.584Z,7.60
2022-10-20T10:54:19.326Z,7.70
2022-10-20T10:57:00.066Z,7.80
2022-10-20T10:59:35.154Z,7.30
2022-10-20T11:02:10.987Z,7.47
2022-10-20T11:04:49.913Z,8.23
2022-10-20T11:07:25.735Z,8.65
2022-10-20T11:09:58.119Z,7.97
2022-10-20T11:12:41.552Z,7.60
2022-10-20T11:15:32.780Z,9.68
2022-10-20T11:18:17.588Z,10.50
2022-10-20T11:21:18.520Z,8.70
2022-10-20T11:24:04.114Z,9.18
2022-10-20T11:26:52.196Z,8.60
2022-10-20T11:29:28.991Z,8.23
2022-10-20T11:32:09.549Z,10.00
2022-10-20T11:35:01.767Z,8.95
2022-10-20T11:37:36.036Z,8.57
2022-10-20T11:40:38.388Z,9.55
2022-10-20T11:43:24.522Z,8.55
2022-10-20T11:45:58.586Z,9.07
2022-10-20T11:48:36.235Z,9.93
2022-10-20T11:51:17.646Z,10.60
2022-10-20T11:54:05.522Z,11.02
2022-10-20T11:57:09.969Z,9.90
2022-10-20T11:59:48.307Z,9.57
2022-10-20T12:02:49.322Z,10.10
2022-10-20T12:05:53.400Z,10.70
2022-10-20T12:08:44.369Z,9.90
2022-10-20T12:11:28.990Z,11.07
2022-10-20T12:14:16.205Z,10.67
2022-10-20T12:16:52.170Z,11.83
2022-10-20T12:19:34.350Z,12.37
2022-10-20T12:22:26.835Z,11.53
2022-10-20T12:24:53.617Z,12.47
2022-10-20T12:27:21.707Z,12.07
2022-10-20T12:29:51.319Z,12.27
2022-10-20T12:32:48.681Z,12.63
2022-10-20T12:35:15.513Z,14.10
2022-10-20T12:37:44.998Z,12.67
2022-10-20T12:40:13.877Z,13.17
2022-10-20T12:42:48.102Z,12.90
2022-10-20T12:45:20.810Z,12.43
2022-10-20T12:47:49.746Z,13.10
2022-10-20T12:50:33.858Z,13.17
2022-10-20T12:53:30.903Z,13.83
2022-10-20T12:56:05.334Z,13.27
2022-10-20T12:58:53.902Z,12.73
2022-10-20T13:01:20.872Z,12.95
2022-10-20T13:03:48.992Z,13.68
2022-10-20T13:06:26.923Z,13.02
2022-10-20T13:09:03.296Z,15.07
2022-10-20T13:11:36.131Z,13.15
2022-10-20T13:14:34.680Z,12.77
2022-10-20T13:17:12.092Z,12.52
2022-10-20T13:19:47.771Z,11.90
2022-10-20T13:22:32.664Z,12.30
2022-10-20T13:25:02.730Z,11.67
2022-10-20T13:27:29.771Z,12.82
2022-10-20T13:29:56.763Z,13.50
2022-10-20T13:32:33.705Z,11.55
2022-10-20T13:35:25.411Z,11.02
2022-10-20T13:38:22.383Z,11.93
2022-10-20T13:41:07.680Z,12.00
2022-10-20T13:44:07.014Z,11.50
2022-10-20T13:46:47.198Z,11.40
2022-10-20T13:49:28.040Z,11.88
2022-10-20T13:52:02.672Z,10.88
2022-10-20T13:54:33.931Z,10.70
2022-10-20T13:57:01.633Z,11.40
2022-10-20T13:59:30.327Z,11.07
2022-10-20T14:01:58.513Z,9.95
2022-10-20T14:04:37.149Z,8.80
2022-10-20T14:07:05.284Z,9.50
2022-10-20T14:09:32.606Z,9.45
2022-10-20T14:12:01.898Z,9.82
2022-10-20T14:14:30.288Z,9.82
2022-10-20T14:16:59.143Z,9.68
2022-10-20T14:19:30.537Z,9.75
2022-10-20T14:21:59.270Z,9.45
2022-10-20T14:24:32.274Z,9.52
2022-10-20T14:27:00.495Z,9.60
2022-10-20T14:29:29.436Z,9.02
2022-10-20T14:31:57.028Z,10.02
2022-10-20T14:34:26.036Z,8.82
2022-10-20T14:36:53.788Z,9.05
2022-10-20T14:39:40.419Z,10.10
2022-10-20T14:42:24.985Z,9.07
2022-10-20T14:44:52.849Z,9.32
2022-10-20T14:47:21.172Z,9.63
2022-10-20T14:49:52.309Z,10.05
2022-10-20T14:52:21.833Z,10.18
2022-10-20T14:54:50.141Z,9.13
2022-10-20T14:57:17.322Z,9.30
2022-10-20T15:00:04.535Z,9.45
2022-10-20T15:02:41.483Z,9.20
2022-10-20T15:05:26.920Z,9.15
2022-10-20T15:07:55.393Z,8.68
2022-10-20T15:10:24.650Z,8.65
2022-10-20T15:12:53.253Z,8.32
2022-10-20T15:15:24.893Z,8.23
2022-10-20T15:17:53.290Z,8.15
2022-10-20T15:20:32.803Z,9.02
2022-10-20T15:23:04.711Z,8.88
2022-10-20T15:25:37.038Z,8.40
2022-10-20T15:28:04.245Z,8.15
2022-10-20T15:30:32.233Z,8.10
2022-10-20T15:32:59.438Z,8.30
2022-10-20T15:35:30.710Z,9.02
2022-10-20T15:37:57.888Z,8.38
2022-10-20T15:40:25.100Z,8.80
2022-10-20T15:42:52.274Z,9.27
2022-10-20T15:45:21.808Z,8.15
2022-10-20T15:47:49.836Z,8.70
2022-10-20T15:50:19.536Z,9.32
2022-10-20T15:52:49.339Z,9.43
2022-10-20T15:55:27.274Z,9.02
2022-10-20T15:57:55.216Z,9.20
2022-10-20T16:00:23.604Z,10.18
2022-10-20T16:02:51.180Z,9.05
2022-10-20T16:05:19.419Z,9.27
2022-10-20T16:07:46.725Z,9.68
2022-10-20T16:10:14.211Z,9.32
2022-10-20T16:12:41.523Z,9.43
2022-10-20T16:15:09.641Z,10.20
2022-10-20T16:17:37.136Z,10.20
2022-10-20T16:20:05.408Z,10.63
2022-10-20T16:22:32.653Z,10.40
2022-10-20T16:25:02.751Z,10.82
2022-10-20T16:27:30.505Z,13.05
2022-10-20T16:29:57.758Z,10.00
2022-10-20T16:32:25.037Z,11.05
2022-10-20T16:34:52.200Z,10.88
2022-10-20T16:37:19.539Z,10.30
2022-10-20T16:39:46.829Z,10.68
2022-10-20T16:42:13.976Z,10.20
2022-10-20T16:44:41.134Z,10.68
2022-10-20T16:47:08.438Z,10.70
2022-10-20T16:49:35.710Z,11.23
2022-10-20T16:52:02.823Z,13.65
2022-10-20T16:54:30.197Z,14.63
2022-10-20T16:56:57.457Z,10.60
2022-10-20T16:59:24.700Z,12.45
2022-10-20T17:01:51.931Z,10.68
2022-10-20T17:04:19.096Z,11.43
2022-10-20T17:06:46.391Z,11.50
2022-10-20T17:09:13.633Z,11.25
2022-10-20T17:11:40.793Z,11.40
2022-10-20T17:14:08.059Z,12.27
2022-10-20T17:16:38.099Z,11.38
2022-10-20T17:19:05.350Z,10.53
2022-10-20T17:21:33.514Z,14.97
2022-10-20T17:24:01.331Z,11.88
2022-10-20T17:26:30.517Z,11.95
2022-10-20T17:29:01.460Z,11.30
2022-10-20T17:31:29.428Z,10.03
2022-10-20T17:33:58.098Z,11.68
2022-10-20T17:36:26.525Z,11.70
2022-10-20T17:38:55.455Z,11.53
2022-10-20T17:41:22.693Z,11.52
2022-10-20T17:43:49.891Z,11.30
2022-10-20T17:46:17.851Z,11.07
2022-10-20T17:48:45.320Z,10.85
2022-10-20T17:51:13.652Z,11.70
2022-10-20T17:53:43.483Z,12.37
2022-10-20T17:56:12.235Z,11.68
2022-10-20T17:58:39.509Z,10.85
2022-10-20T18:01:09.784Z,10.65
2022-10-20T18:03:37.771Z,10.35
2022-10-20T18:06:22.882Z,11.32
2022-10-20T18:08:50.294Z,11.77
2022-10-20T18:11:18.958Z,10.83
2022-10-20T18:13:46.693Z,10.65
2022-10-20T18:16:15.413Z,11.73
2022-10-20T18:18:42.644Z,11.23
2022-10-20T18:21:11.196Z,11.32
2022-10-20T18:23:41.082Z,11.18
2022-10-20T18:26:09.550Z,11.35
2022-10-20T18:28:40.236Z,11.70
2022-10-20T18:31:10.786Z,10.13
2022-10-20T18:33:38.052Z,12.00
2022-10-20T18:36:06.447Z,13.77
2022-10-20T18:38:36.222Z,10.90
2022-10-20T18:41:07.157Z,12.03
2022-10-20T18:43:34.590Z,11.10
2022-10-20T18:46:02.214Z,11.27
2022-10-20T18:48:29.644Z,10.18
2022-10-20T18:51:00.955Z,11.18
2022-10-20T18:53:32.226Z,10.30
2022-10-20T18:56:07.179Z,10.40
2022-10-20T18:58:36.517Z,11.52
2022-10-20T19:01:05.749Z,10.80
2022-10-20T19:03:33.329Z,10.73
2022-10-20T19:06:01.965Z,11.27
2022-10-20T19:08:31.828Z,11.00
2022-10-20T19:11:00.250Z,10.10
2022-10-20T19:13:28.271Z,10.40
2022-10-20T19:15:55.967Z,9.40
2022-10-20T19:18:24.100Z,10.63
2022-10-20T19:20:58.311Z,10.25
2022-10-20T19:23:25.814Z,10.50
2022-10-20T19:26:06.112Z,10.50
2022-10-20T19:28:34.241Z,10.57
2022-10-20T19:31:01.901Z,9.23
2022-10-20T19:33:29.667Z,9.20
2022-10-20T19:35:56.769Z,10.60
2022-10-20T19:38:23.961Z,9.75
2022-10-20T19:40:51.205Z,10.70
2022-10-20T19:43:18.345Z,11.75
2022-10-20T19:45:49.071Z,10.55
2022-10-20T19:48:17.157Z,10.57
2022-10-20T19:50:44.333Z,12.02
2022-10-20T19:53:11.456Z,12.43
2022-10-20T19:55:38.637Z,9.98
2022-10-20T19:58:05.851Z,10.68
2022-10-20T20:00:33.135Z,9.98
2022-10-20T20:03:00.268Z,9.77
2022-10-20T20:05:27.456Z,10.77
2022-10-20T20:07:54.755Z,9.05
2022-10-20T20:10:22.413Z,9.93
2022-10-20T20:12:49.648Z,10.20
2022-10-20T20:15:16.811Z,10.18
2022-10-20T20:17:44.035Z,9.75
2022-10-20T20:20:11.283Z,9.93
2022-10-20T20:22:38.411Z,10.05
2022-10-20T20:25:05.797Z,10.07
2022-10-20T20:27:32.968Z,9.93
2022-10-20T20:30:01.006Z,9.85
2022-10-20T20:32:29.863Z,9.68
2022-10-20T20:34:57.063Z,12.32
2022-10-20T20:37:24.266Z,9.03
2022-10-20T20:39:51.483Z,8.50
2022-10-20T20:42:18.629Z,9.85
2022-10-20T20:44:45.846Z,8.75
2022-10-20T20:47:13.164Z,9.75
2022-10-20T20:49:40.347Z,9.00
2022-10-20T20:52:07.598Z,7.53
2022-10-20T20:54:34.839Z,8.48
2022-10-20T20:57:02.008Z,8.53
2022-10-20T20:59:29.257Z,8.82
2022-10-20T21:01:56.418Z,9.70
2022-10-20T21:04:25.794Z,8.32
2022-10-20T21:07:03.156Z,8.52
2022-10-20T21:09:30.769Z,8.43
2022-10-20T21:11:57.999Z,8.73
2022-10-20T21:14:25.208Z,9.48
2022-10-20T21:16:52.441Z,8.70
2022-10-20T21:19:20.241Z,9.23
2022-10-20T21:21:50.801Z,8.73
2022-10-20T21:24:18.730Z,8.68
2022-10-20T21:26:46.035Z,8.63
2022-10-20T21:29:13.209Z,9.20
2022-10-20T21:31:41.125Z,8.45
2022-10-20T21:34:08.375Z,8.27
2022-10-20T21:36:36.219Z,8.73
2022-10-20T21:39:04.857Z,8.48
2022-10-20T21:41:34.547Z,9.23
2022-10-20T21:44:02.800Z,8.75
2022-10-20T21:46:31.286Z,8.77
2022-10-20T21:49:02.812Z,9.20
2022-10-20T21:51:34.094Z,8.85
2022-10-20T21:54:02.254Z,8.48
2022-10-20T21:56:30.137Z,9.80
2022-10-20T21:58:57.315Z,8.68
2022-10-20T22:01:27.586Z,9.82
2022-10-20T22:03:55.171Z,9.18
2022-10-20T22:06:24.374Z,8.88
2022-10-20T22:08:53.494Z,8.98
2022-10-20T22:11:22.385Z,10.13
2022-10-20T22:13:49.820Z,9.35
2022-10-20T22:16:18.626Z,9.43
2022-10-20T22:18:46.243Z,10.15
2022-10-20T22:21:15.776Z,9.18
2022-10-20T22:23:43.513Z,9.35
2022-10-20T22:26:11.163Z,9.60
2022-10-20T22:28:39.030Z,11.35
2022-10-20T22:31:07.452Z,10.63
2022-10-20T22:33:34.663Z,10.43
2022-10-20T22:36:01.960Z,10.05
2022-10-20T22:38:29.323Z,9.88
2022-10-20T22:41:00.011Z,10.48
2022-10-20T22:43:28.885Z,10.80
2022-10-20T22:45:56.071Z,10.40
2022-10-20T22:48:23.522Z,9.95
2022-10-20T22:50:50.834Z,10.57
2022-10-20T22:53:18.078Z,17.73
2022-10-20T22:55:45.246Z,10.95
2022-10-20T22:58:12.371Z,11.02
2022-10-20T23:00:40.592Z,10.88
2022-10-20T23:03:07.955Z,11.38
2022-10-20T23:05:35.130Z,11.35
2022-10-20T23:08:02.307Z,11.48
2022-10-20T23:10:29.545Z,12.23
2022-10-20T23:12:56.693Z,11.93
2022-10-20T23:15:23.820Z,12.02
2022-10-20T23:17:50.962Z,13.45
2022-10-20T23:20:18.175Z,13.43
2022-10-20T23:22:48.220Z,12.93
2022-10-20T23:25:15.506Z,12.82
2022-10-20T23:27:42.659Z,11.35
2022-10-20T23:30:10.057Z,12.50
2022-10-20T23:32:37.293Z,14.52
2022-10-20T23:35:04.480Z,14.63
2022-10-20T23:37:32.103Z,12.77
2022-10-20T23:39:59.247Z,14.25
2022-10-20T23:42:26.389Z,13.23
2022-10-20T23:44:53.511Z,12.55
2022-10-20T23:47:20.691Z,13.70
2022-10-20T23:49:47.821Z,13.25
2022-10-20T23:52:14.948Z,13.05
2022-10-20T23:54:42.055Z,13.15
2022-10-20T23:57:09.200Z,13.95
2022-10-20T23:59:36.298Z,13.37
